Terminal Aerodrome Forecast
Issued by NWS Missoula, MT

Current Version | Previous Version | Text Only | Print | Product List | Glossary On
Versions: 1 2 3 4 5 6 7 8 9 10 11 12 13 14
531
FTUS45 KMSO 061925 AAB
TAFBTM
TAF AMD
KBTM 061925Z 0619/0718 32015G25KT P6SM VCSH FEW010 BKN035 OVC050
     FM062200 29015G25KT P6SM VCSH BKN050
     FM070300 27008KT P6SM BKN090=

USA.gov is the U.S. government's official web portal to all federal, state and local government web resources and services.